sensor_id;sensor_type;location;lat;lon;timestamp;P1;durP1;ratioP1;P2;durP2;ratioP2
35576;SDS011;21680;52.400;16.920;2023-08-06T00:01:35;14.40;;;7.80;;
35576;SDS011;21680;52.400;16.920;2023-08-06T00:04:00;14.30;;;7.70;;
35576;SDS011;21680;52.400;16.920;2023-08-06T00:06:26;9.40;;;7.80;;
35576;SDS011;21680;52.400;16.920;2023-08-06T00:08:51;12.60;;;8.20;;
35576;SDS011;21680;52.400;16.920;2023-08-06T00:11:16;9.90;;;7.40;;
35576;SDS011;21680;52.400;16.920;2023-08-06T00:13:41;13.70;;;7.30;;
35576;SDS011;21680;52.400;16.920;2023-08-06T00:16:10;14.40;;;8.50;;
35576;SDS011;21680;52.400;16.920;2023-08-06T00:18:36;10.40;;;7.50;;
35576;SDS011;21680;52.400;16.920;2023-08-06T00:21:02;16.70;;;8.90;;
35576;SDS011;21680;52.400;16.920;2023-08-06T00:23:27;24.50;;;8.60;;
35576;SDS011;21680;52.400;16.920;2023-08-06T00:25:52;13.80;;;8.50;;
35576;SDS011;21680;52.400;16.920;2023-08-06T00:28:17;14.00;;;8.90;;
35576;SDS011;21680;52.400;16.920;2023-08-06T00:30:43;15.70;;;8.00;;
35576;SDS011;21680;52.400;16.920;2023-08-06T00:33:08;14.70;;;9.10;;
35576;SDS011;21680;52.400;16.920;2023-08-06T00:35:33;13.30;;;8.10;;
35576;SDS011;21680;52.400;16.920;2023-08-06T00:37:58;13.00;;;8.40;;
35576;SDS011;21680;52.400;16.920;2023-08-06T00:40:24;13.80;;;8.70;;
35576;SDS011;21680;52.400;16.920;2023-08-06T00:42:49;11.20;;;7.50;;
35576;SDS011;21680;52.400;16.920;2023-08-06T00:45:14;13.50;;;8.20;;
35576;SDS011;21680;52.400;16.920;2023-08-06T00:47:39;12.00;;;7.90;;
35576;SDS011;21680;52.400;16.920;2023-08-06T00:50:06;13.00;;;7.90;;
35576;SDS011;21680;52.400;16.920;2023-08-06T00:52:32;12.40;;;7.80;;
35576;SDS011;21680;52.400;16.920;2023-08-06T00:54:58;10.50;;;8.20;;
35576;SDS011;21680;52.400;16.920;2023-08-06T00:57:24;13.70;;;8.50;;
35576;SDS011;21680;52.400;16.920;2023-08-06T00:59:50;11.00;;;8.20;;
35576;SDS011;21680;52.400;16.920;2023-08-06T01:02:15;19.80;;;10.50;;
35576;SDS011;21680;52.400;16.920;2023-08-06T01:04:40;16.50;;;10.20;;
35576;SDS011;21680;52.400;16.920;2023-08-06T01:07:55;16.70;;;9.90;;
35576;SDS011;21680;52.400;16.920;2023-08-06T01:10:06;18.50;;;10.60;;
35576;SDS011;21680;52.400;16.920;2023-08-06T01:15:43;17.10;;;8.20;;
35576;SDS011;21680;52.400;16.920;2023-08-06T01:18:11;12.30;;;8.50;;
35576;SDS011;21680;52.400;16.920;2023-08-06T01:20:37;17.80;;;9.40;;
35576;SDS011;21680;52.400;16.920;2023-08-06T01:23:02;12.40;;;8.60;;
35576;SDS011;21680;52.400;16.920;2023-08-06T01:25:33;11.00;;;7.70;;
35576;SDS011;21680;52.400;16.920;2023-08-06T01:28:10;11.60;;;8.10;;
35576;SDS011;21680;52.400;16.920;2023-08-06T01:31:03;13.60;;;7.30;;
35576;SDS011;21680;52.400;16.920;2023-08-06T01:33:32;13.60;;;7.90;;
35576;SDS011;21680;52.400;16.920;2023-08-06T01:36:01;15.50;;;7.70;;
35576;SDS011;21680;52.400;16.920;2023-08-06T01:38:28;12.10;;;7.60;;
35576;SDS011;21680;52.400;16.920;2023-08-06T01:40:54;11.70;;;8.20;;
35576;SDS011;21680;52.400;16.920;2023-08-06T01:43:19;9.70;;;6.60;;
35576;SDS011;21680;52.400;16.920;2023-08-06T01:45:44;11.90;;;7.50;;
35576;SDS011;21680;52.400;16.920;2023-08-06T01:48:10;9.10;;;6.30;;
35576;SDS011;21680;52.400;16.920;2023-08-06T01:50:35;8.50;;;6.40;;
35576;SDS011;21680;52.400;16.920;2023-08-06T01:53:00;10.10;;;7.60;;
35576;SDS011;21680;52.400;16.920;2023-08-06T01:55:26;8.90;;;5.70;;
35576;SDS011;21680;52.400;16.920;2023-08-06T01:57:51;9.40;;;6.50;;
35576;SDS011;21680;52.400;16.920;2023-08-06T02:00:16;8.60;;;6.00;;
35576;SDS011;21680;52.400;16.920;2023-08-06T02:02:42;12.00;;;7.50;;
35576;SDS011;21680;52.400;16.920;2023-08-06T02:05:09;12.70;;;6.50;;
35576;SDS011;21680;52.400;16.920;2023-08-06T02:07:34;9.00;;;4.80;;
35576;SDS011;21680;52.400;16.920;2023-08-06T02:09:59;9.10;;;5.70;;
35576;SDS011;21680;52.400;16.920;2023-08-06T02:12:25;7.30;;;4.70;;
35576;SDS011;21680;52.400;16.920;2023-08-06T02:14:50;5.60;;;3.80;;
35576;SDS011;21680;52.400;16.920;2023-08-06T02:17:16;6.20;;;4.80;;
35576;SDS011;21680;52.400;16.920;2023-08-06T02:19:41;5.40;;;4.20;;
35576;SDS011;21680;52.400;16.920;2023-08-06T02:22:08;6.40;;;4.00;;
35576;SDS011;21680;52.400;16.920;2023-08-06T02:24:33;6.30;;;4.00;;
35576;SDS011;21680;52.400;16.920;2023-08-06T02:26:58;3.90;;;3.50;;
35576;SDS011;21680;52.400;16.920;2023-08-06T02:29:23;5.40;;;3.70;;
35576;SDS011;21680;52.400;16.920;2023-08-06T02:31:49;3.90;;;3.10;;
35576;SDS011;21680;52.400;16.920;2023-08-06T02:34:14;3.00;;;2.60;;
35576;SDS011;21680;52.400;16.920;2023-08-06T02:36:39;4.00;;;2.80;;
35576;SDS011;21680;52.400;16.920;2023-08-06T02:39:04;3.40;;;2.90;;
35576;SDS011;21680;52.400;16.920;2023-08-06T02:41:30;4.10;;;2.40;;
35576;SDS011;21680;52.400;16.920;2023-08-06T02:43:55;2.80;;;2.40;;
35576;SDS011;21680;52.400;16.920;2023-08-06T02:46:20;2.60;;;2.40;;
35576;SDS011;21680;52.400;16.920;2023-08-06T02:48:45;3.10;;;2.80;;
35576;SDS011;21680;52.400;16.920;2023-08-06T02:51:11;3.70;;;3.40;;
35576;SDS011;21680;52.400;16.920;2023-08-06T02:53:36;3.10;;;2.60;;
35576;SDS011;21680;52.400;16.920;2023-08-06T02:56:01;1.50;;;1.40;;
35576;SDS011;21680;52.400;16.920;2023-08-06T02:58:27;2.40;;;2.00;;
35576;SDS011;21680;52.400;16.920;2023-08-06T03:01:02;2.90;;;2.00;;
35576;SDS011;21680;52.400;16.920;2023-08-06T03:03:30;4.20;;;2.50;;
35576;SDS011;21680;52.400;16.920;2023-08-06T03:05:56;2.90;;;2.40;;
35576;SDS011;21680;52.400;16.920;2023-08-06T03:08:21;2.30;;;2.10;;
35576;SDS011;21680;52.400;16.920;2023-08-06T03:10:50;3.90;;;2.50;;
35576;SDS011;21680;52.400;16.920;2023-08-06T03:13:16;3.30;;;2.70;;
35576;SDS011;21680;52.400;16.920;2023-08-06T03:15:43;2.10;;;1.90;;
35576;SDS011;21680;52.400;16.920;2023-08-06T03:18:08;3.00;;;2.40;;
35576;SDS011;21680;52.400;16.920;2023-08-06T03:20:33;2.40;;;2.20;;
35576;SDS011;21680;52.400;16.920;2023-08-06T03:22:59;2.00;;;1.90;;
35576;SDS011;21680;52.400;16.920;2023-08-06T03:25:24;2.20;;;1.80;;
35576;SDS011;21680;52.400;16.920;2023-08-06T03:27:50;3.50;;;2.90;;
35576;SDS011;21680;52.400;16.920;2023-08-06T03:30:15;2.30;;;2.00;;
35576;SDS011;21680;52.400;16.920;2023-08-06T03:32:40;2.70;;;2.30;;
35576;SDS011;21680;52.400;16.920;2023-08-06T03:35:06;2.00;;;1.80;;
35576;SDS011;21680;52.400;16.920;2023-08-06T03:37:31;2.40;;;2.10;;
35576;SDS011;21680;52.400;16.920;2023-08-06T03:39:56;2.30;;;1.90;;
35576;SDS011;21680;52.400;16.920;2023-08-06T03:42:22;2.70;;;2.10;;
35576;SDS011;21680;52.400;16.920;2023-08-06T03:44:47;3.00;;;2.70;;
35576;SDS011;21680;52.400;16.920;2023-08-06T03:47:13;2.50;;;2.30;;
35576;SDS011;21680;52.400;16.920;2023-08-06T03:49:38;3.10;;;2.10;;
35576;SDS011;21680;52.400;16.920;2023-08-06T03:52:04;2.50;;;2.30;;
35576;SDS011;21680;52.400;16.920;2023-08-06T03:54:30;2.40;;;2.20;;
35576;SDS011;21680;52.400;16.920;2023-08-06T03:56:55;2.20;;;1.90;;
35576;SDS011;21680;52.400;16.920;2023-08-06T03:59:20;2.30;;;2.00;;
35576;SDS011;21680;52.400;16.920;2023-08-06T04:01:45;2.90;;;1.70;;
35576;SDS011;21680;52.400;16.920;2023-08-06T04:04:11;1.90;;;1.80;;
35576;SDS011;21680;52.400;16.920;2023-08-06T04:06:36;3.30;;;2.00;;
35576;SDS011;21680;52.400;16.920;2023-08-06T04:09:01;2.60;;;2.10;;
35576;SDS011;21680;52.400;16.920;2023-08-06T04:11:26;3.30;;;2.00;;
35576;SDS011;21680;52.400;16.920;2023-08-06T04:13:52;1.80;;;1.70;;
35576;SDS011;21680;52.400;16.920;2023-08-06T04:16:19;2.30;;;2.10;;
35576;SDS011;21680;52.400;16.920;2023-08-06T04:18:44;2.40;;;2.10;;
35576;SDS011;21680;52.400;16.920;2023-08-06T04:21:10;2.80;;;1.90;;
35576;SDS011;21680;52.400;16.920;2023-08-06T04:23:36;1.80;;;1.70;;
35576;SDS011;21680;52.400;16.920;2023-08-06T04:26:01;2.10;;;1.60;;
35576;SDS011;21680;52.400;16.920;2023-08-06T04:28:26;1.50;;;1.40;;
35576;SDS011;21680;52.400;16.920;2023-08-06T04:30:52;1.40;;;1.30;;
35576;SDS011;21680;52.400;16.920;2023-08-06T04:33:18;1.80;;;1.40;;
35576;SDS011;21680;52.400;16.920;2023-08-06T04:35:44;1.50;;;1.40;;
35576;SDS011;21680;52.400;16.920;2023-08-06T04:38:09;2.00;;;1.60;;
35576;SDS011;21680;52.400;16.920;2023-08-06T04:40:35;1.70;;;1.50;;
35576;SDS011;21680;52.400;16.920;2023-08-06T04:43:01;2.70;;;1.70;;
35576;SDS011;21680;52.400;16.920;2023-08-06T04:45:26;2.20;;;2.00;;
35576;SDS011;21680;52.400;16.920;2023-08-06T04:47:51;2.80;;;2.30;;
35576;SDS011;21680;52.400;16.920;2023-08-06T04:50:16;3.40;;;2.20;;
35576;SDS011;21680;52.400;16.920;2023-08-06T04:52:42;2.10;;;1.90;;
35576;SDS011;21680;52.400;16.920;2023-08-06T04:55:07;2.20;;;2.00;;
35576;SDS011;21680;52.400;16.920;2023-08-06T04:57:32;1.90;;;1.80;;
35576;SDS011;21680;52.400;16.920;2023-08-06T04:59:57;2.20;;;2.10;;
35576;SDS011;21680;52.400;16.920;2023-08-06T05:02:23;2.50;;;1.60;;
35576;SDS011;21680;52.400;16.920;2023-08-06T05:04:48;4.50;;;2.30;;
35576;SDS011;21680;52.400;16.920;2023-08-06T05:07:13;2.80;;;2.00;;
35576;SDS011;21680;52.400;16.920;2023-08-06T05:09:38;3.60;;;2.20;;
35576;SDS011;21680;52.400;16.920;2023-08-06T05:12:04;2.00;;;1.90;;
35576;SDS011;21680;52.400;16.920;2023-08-06T05:14:29;2.20;;;1.90;;
35576;SDS011;21680;52.400;16.920;2023-08-06T05:16:55;2.00;;;1.90;;
35576;SDS011;21680;52.400;16.920;2023-08-06T05:19:20;4.00;;;1.90;;
35576;SDS011;21680;52.400;16.920;2023-08-06T05:21:45;2.10;;;1.80;;
35576;SDS011;21680;52.400;16.920;2023-08-06T05:24:10;5.40;;;1.70;;
35576;SDS011;21680;52.400;16.920;2023-08-06T05:26:37;2.40;;;1.40;;
35576;SDS011;21680;52.400;16.920;2023-08-06T05:29:02;1.20;;;1.10;;
35576;SDS011;21680;52.400;16.920;2023-08-06T05:31:27;2.30;;;1.30;;
35576;SDS011;21680;52.400;16.920;2023-08-06T05:33:54;1.40;;;1.30;;
35576;SDS011;21680;52.400;16.920;2023-08-06T05:36:19;1.00;;;0.90;;
35576;SDS011;21680;52.400;16.920;2023-08-06T05:38:44;0.90;;;0.90;;
35576;SDS011;21680;52.400;16.920;2023-08-06T05:41:10;1.60;;;1.10;;
35576;SDS011;21680;52.400;16.920;2023-08-06T05:43:35;2.00;;;1.40;;
35576;SDS011;21680;52.400;16.920;2023-08-06T05:46:00;1.30;;;1.20;;
35576;SDS011;21680;52.400;16.920;2023-08-06T05:48:25;1.10;;;1.10;;
35576;SDS011;21680;52.400;16.920;2023-08-06T05:50:52;1.40;;;1.20;;
35576;SDS011;21680;52.400;16.920;2023-08-06T05:53:18;1.50;;;1.40;;
35576;SDS011;21680;52.400;16.920;2023-08-06T05:55:44;3.70;;;1.10;;
35576;SDS011;21680;52.400;16.920;2023-08-06T05:58:10;1.30;;;1.20;;
35576;SDS011;21680;52.400;16.920;2023-08-06T06:00:35;1.30;;;1.20;;
35576;SDS011;21680;52.400;16.920;2023-08-06T06:03:00;1.30;;;1.20;;
35576;SDS011;21680;52.400;16.920;2023-08-06T06:05:27;1.50;;;1.30;;
35576;SDS011;21680;52.400;16.920;2023-08-06T06:07:53;1.20;;;1.10;;
35576;SDS011;21680;52.400;16.920;2023-08-06T06:10:18;2.30;;;1.10;;
35576;SDS011;21680;52.400;16.920;2023-08-06T06:12:43;2.00;;;1.10;;
35576;SDS011;21680;52.400;16.920;2023-08-06T06:15:08;1.70;;;1.10;;
35576;SDS011;21680;52.400;16.920;2023-08-06T06:17:34;1.20;;;0.90;;
35576;SDS011;21680;52.400;16.920;2023-08-06T06:19:59;2.30;;;1.00;;
35576;SDS011;21680;52.400;16.920;2023-08-06T06:22:25;1.10;;;1.10;;
35576;SDS011;21680;52.400;16.920;2023-08-06T06:24:50;3.50;;;1.20;;
35576;SDS011;21680;52.400;16.920;2023-08-06T06:27:15;1.90;;;0.90;;
35576;SDS011;21680;52.400;16.920;2023-08-06T06:29:40;2.80;;;0.80;;
35576;SDS011;21680;52.400;16.920;2023-08-06T06:32:06;5.30;;;1.00;;
35576;SDS011;21680;52.400;16.920;2023-08-06T06:34:31;1.40;;;0.90;;
35576;SDS011;21680;52.400;16.920;2023-08-06T06:36:57;1.50;;;1.00;;
35576;SDS011;21680;52.400;16.920;2023-08-06T06:39:22;2.30;;;1.20;;
35576;SDS011;21680;52.400;16.920;2023-08-06T06:41:47;2.30;;;0.70;;
35576;SDS011;21680;52.400;16.920;2023-08-06T06:44:13;1.20;;;1.10;;
35576;SDS011;21680;52.400;16.920;2023-08-06T06:46:38;0.90;;;0.80;;
35576;SDS011;21680;52.400;16.920;2023-08-06T06:49:04;1.10;;;1.00;;
35576;SDS011;21680;52.400;16.920;2023-08-06T06:51:29;1.10;;;1.00;;
35576;SDS011;21680;52.400;16.920;2023-08-06T06:53:56;1.80;;;1.70;;
35576;SDS011;21680;52.400;16.920;2023-08-06T06:56:22;1.30;;;1.20;;
35576;SDS011;21680;52.400;16.920;2023-08-06T06:58:47;2.80;;;0.60;;
35576;SDS011;21680;52.400;16.920;2023-08-06T07:01:12;0.70;;;0.70;;
35576;SDS011;21680;52.400;16.920;2023-08-06T07:03:37;0.90;;;0.90;;
35576;SDS011;21680;52.400;16.920;2023-08-06T07:06:02;1.00;;;0.90;;
35576;SDS011;21680;52.400;16.920;2023-08-06T07:08:28;1.90;;;1.00;;
35576;SDS011;21680;52.400;16.920;2023-08-06T07:11:00;1.00;;;0.90;;
35576;SDS011;21680;52.400;16.920;2023-08-06T07:13:27;1.00;;;0.80;;
35576;SDS011;21680;52.400;16.920;2023-08-06T07:15:53;1.30;;;0.70;;
35576;SDS011;21680;52.400;16.920;2023-08-06T07:18:19;1.60;;;1.00;;
35576;SDS011;21680;52.400;16.920;2023-08-06T07:20:49;2.50;;;0.70;;
35576;SDS011;21680;52.400;16.920;2023-08-06T07:23:15;0.90;;;0.80;;
35576;SDS011;21680;52.400;16.920;2023-08-06T07:25:40;1.30;;;0.90;;
35576;SDS011;21680;52.400;16.920;2023-08-06T07:28:05;2.00;;;1.00;;
35576;SDS011;21680;52.400;16.920;2023-08-06T07:30:30;1.10;;;1.00;;
35576;SDS011;21680;52.400;16.920;2023-08-06T07:32:56;0.70;;;0.70;;
35576;SDS011;21680;52.400;16.920;2023-08-06T07:35:21;0.60;;;0.60;;
35576;SDS011;21680;52.400;16.920;2023-08-06T07:37:46;1.60;;;0.60;;
35576;SDS011;21680;52.400;16.920;2023-08-06T07:40:11;1.50;;;0.50;;
35576;SDS011;21680;52.400;16.920;2023-08-06T07:42:37;1.00;;;0.60;;
35576;SDS011;21680;52.400;16.920;2023-08-06T07:45:02;4.80;;;1.10;;
35576;SDS011;21680;52.400;16.920;2023-08-06T07:47:27;1.60;;;1.20;;
35576;SDS011;21680;52.400;16.920;2023-08-06T07:49:53;3.70;;;0.80;;
35576;SDS011;21680;52.400;16.920;2023-08-06T07:52:18;2.60;;;1.20;;
35576;SDS011;21680;52.400;16.920;2023-08-06T07:54:43;3.60;;;0.80;;
35576;SDS011;21680;52.400;16.920;2023-08-06T07:57:08;1.20;;;0.90;;
35576;SDS011;21680;52.400;16.920;2023-08-06T07:59:34;1.10;;;1.00;;
35576;SDS011;21680;52.400;16.920;2023-08-06T08:01:59;2.30;;;0.70;;
35576;SDS011;21680;52.400;16.920;2023-08-06T08:04:25;0.90;;;0.70;;
35576;SDS011;21680;52.400;16.920;2023-08-06T08:06:50;1.00;;;0.90;;
35576;SDS011;21680;52.400;16.920;2023-08-06T08:09:15;1.10;;;0.70;;
35576;SDS011;21680;52.400;16.920;2023-08-06T08:11:41;1.00;;;0.90;;
35576;SDS011;21680;52.400;16.920;2023-08-06T08:14:07;1.50;;;0.70;;
35576;SDS011;21680;52.400;16.920;2023-08-06T08:16:32;1.10;;;0.60;;
35576;SDS011;21680;52.400;16.920;2023-08-06T08:18:58;3.40;;;1.10;;
35576;SDS011;21680;52.400;16.920;2023-08-06T08:21:23;4.10;;;1.00;;
35576;SDS011;21680;52.400;16.920;2023-08-06T08:23:49;2.00;;;0.80;;
35576;SDS011;21680;52.400;16.920;2023-08-06T08:26:15;1.80;;;0.80;;
35576;SDS011;21680;52.400;16.920;2023-08-06T08:28:40;1.50;;;1.00;;
35576;SDS011;21680;52.400;16.920;2023-08-06T08:31:08;1.00;;;0.50;;
35576;SDS011;21680;52.400;16.920;2023-08-06T08:33:34;2.10;;;0.90;;
35576;SDS011;21680;52.400;16.920;2023-08-06T08:35:59;0.50;;;0.50;;
35576;SDS011;21680;52.400;16.920;2023-08-06T08:38:25;10.30;;;2.30;;
35576;SDS011;21680;52.400;16.920;2023-08-06T08:40:51;1.70;;;0.40;;
35576;SDS011;21680;52.400;16.920;2023-08-06T08:43:22;0.80;;;0.60;;
35576;SDS011;21680;52.400;16.920;2023-08-06T08:45:51;0.60;;;0.60;;
35576;SDS011;21680;52.400;16.920;2023-08-06T08:48:20;0.10;;;0.10;;
35576;SDS011;21680;52.400;16.920;2023-08-06T08:50:47;0.90;;;0.40;;
35576;SDS011;21680;52.400;16.920;2023-08-06T08:53:14;1.40;;;0.60;;
35576;SDS011;21680;52.400;16.920;2023-08-06T08:55:40;1.50;;;0.60;;
35576;SDS011;21680;52.400;16.920;2023-08-06T08:58:08;0.70;;;0.60;;
35576;SDS011;21680;52.400;16.920;2023-08-06T09:00:33;1.20;;;0.40;;
35576;SDS011;21680;52.400;16.920;2023-08-06T09:02:59;1.20;;;0.30;;
35576;SDS011;21680;52.400;16.920;2023-08-06T09:05:28;5.80;;;0.30;;
35576;SDS011;21680;52.400;16.920;2023-08-06T09:07:56;1.70;;;0.40;;
35576;SDS011;21680;52.400;16.920;2023-08-06T09:10:27;2.90;;;0.50;;
35576;SDS011;21680;52.400;16.920;2023-08-06T09:12:53;0.20;;;0.20;;
35576;SDS011;21680;52.400;16.920;2023-08-06T09:15:23;0.40;;;0.40;;
35576;SDS011;21680;52.400;16.920;2023-08-06T09:17:49;1.60;;;0.40;;
35576;SDS011;21680;52.400;16.920;2023-08-06T09:20:15;0.50;;;0.50;;
35576;SDS011;21680;52.400;16.920;2023-08-06T09:22:41;0.60;;;0.20;;
35576;SDS011;21680;52.400;16.920;2023-08-06T09:25:07;0.30;;;0.20;;
35576;SDS011;21680;52.400;16.920;2023-08-06T09:27:36;0.80;;;0.10;;
35576;SDS011;21680;52.400;16.920;2023-08-06T09:30:02;0.10;;;0.10;;
35576;SDS011;21680;52.400;16.920;2023-08-06T09:32:44;0.70;;;0.20;;
35576;SDS011;21680;52.400;16.920;2023-08-06T09:35:10;0.80;;;0.10;;
35576;SDS011;21680;52.400;16.920;2023-08-06T09:37:40;0.60;;;0.20;;
35576;SDS011;21680;52.400;16.920;2023-08-06T09:40:21;1.00;;;0.30;;
35576;SDS011;21680;52.400;16.920;2023-08-06T09:42:50;1.80;;;0.50;;
35576;SDS011;21680;52.400;16.920;2023-08-06T09:45:16;0.20;;;0.20;;
35576;SDS011;21680;52.400;16.920;2023-08-06T09:47:41;0.40;;;0.40;;
35576;SDS011;21680;52.400;16.920;2023-08-06T09:50:14;1.70;;;0.20;;
35576;SDS011;21680;52.400;16.920;2023-08-06T09:52:41;0.80;;;0.10;;
35576;SDS011;21680;52.400;16.920;2023-08-06T09:55:07;0.40;;;0.10;;
35576;SDS011;21680;52.400;16.920;2023-08-06T09:57:35;0.10;;;0.10;;
35576;SDS011;21680;52.400;16.920;2023-08-06T10:00:01;3.30;;;0.60;;
35576;SDS011;21680;52.400;16.920;2023-08-06T10:02:27;1.50;;;0.20;;
35576;SDS011;21680;52.400;16.920;2023-08-06T10:04:52;3.60;;;0.20;;
35576;SDS011;21680;52.400;16.920;2023-08-06T10:07:21;0.60;;;0.30;;
35576;SDS011;21680;52.400;16.920;2023-08-06T10:09:47;2.50;;;0.40;;
35576;SDS011;21680;52.400;16.920;2023-08-06T10:12:13;1.00;;;0.30;;
35576;SDS011;21680;52.400;16.920;2023-08-06T10:14:39;2.40;;;0.40;;
35576;SDS011;21680;52.400;16.920;2023-08-06T10:17:06;1.00;;;0.40;;
35576;SDS011;21680;52.400;16.920;2023-08-06T10:19:33;1.70;;;0.20;;
35576;SDS011;21680;52.400;16.920;2023-08-06T10:22:14;1.60;;;0.40;;
35576;SDS011;21680;52.400;16.920;2023-08-06T10:24:46;1.20;;;0.40;;
35576;SDS011;21680;52.400;16.920;2023-08-06T10:27:21;0.40;;;0.20;;
35576;SDS011;21680;52.400;16.920;2023-08-06T10:32:47;1.80;;;0.70;;
35576;SDS011;21680;52.400;16.920;2023-08-06T10:35:30;5.30;;;1.00;;
35576;SDS011;21680;52.400;16.920;2023-08-06T10:38:13;1.80;;;0.40;;
35576;SDS011;21680;52.400;16.920;2023-08-06T10:43:06;0.60;;;0.30;;
35576;SDS011;21680;52.400;16.920;2023-08-06T10:45:34;1.00;;;0.30;;
35576;SDS011;21680;52.400;16.920;2023-08-06T10:48:00;0.50;;;0.40;;
35576;SDS011;21680;52.400;16.920;2023-08-06T10:50:26;2.40;;;0.30;;
35576;SDS011;21680;52.400;16.920;2023-08-06T10:52:52;1.10;;;0.40;;
35576;SDS011;21680;52.400;16.920;2023-08-06T10:55:24;1.60;;;0.40;;
35576;SDS011;21680;52.400;16.920;2023-08-06T10:57:51;1.90;;;0.30;;
35576;SDS011;21680;52.400;16.920;2023-08-06T11:00:17;2.70;;;0.20;;
35576;SDS011;21680;52.400;16.920;2023-08-06T11:02:42;2.20;;;0.50;;
35576;SDS011;21680;52.400;16.920;2023-08-06T11:05:09;1.60;;;0.30;;
35576;SDS011;21680;52.400;16.920;2023-08-06T11:07:35;4.80;;;0.50;;
35576;SDS011;21680;52.400;16.920;2023-08-06T11:10:02;0.40;;;0.30;;
35576;SDS011;21680;52.400;16.920;2023-08-06T11:12:28;1.30;;;0.50;;
35576;SDS011;21680;52.400;16.920;2023-08-06T11:14:54;0.90;;;0.50;;
35576;SDS011;21680;52.400;16.920;2023-08-06T11:17:20;0.50;;;0.50;;
35576;SDS011;21680;52.400;16.920;2023-08-06T11:19:46;1.30;;;0.30;;
35576;SDS011;21680;52.400;16.920;2023-08-06T11:22:11;2.30;;;0.30;;
35576;SDS011;21680;52.400;16.920;2023-08-06T11:24:37;3.40;;;0.30;;
35576;SDS011;21680;52.400;16.920;2023-08-06T11:27:10;1.90;;;0.60;;
35576;SDS011;21680;52.400;16.920;2023-08-06T11:29:38;2.20;;;0.40;;
35576;SDS011;21680;52.400;16.920;2023-08-06T11:32:04;1.80;;;0.90;;
35576;SDS011;21680;52.400;16.920;2023-08-06T11:34:30;2.10;;;0.50;;
35576;SDS011;21680;52.400;16.920;2023-08-06T11:36:56;3.70;;;0.50;;
35576;SDS011;21680;52.400;16.920;2023-08-06T11:39:21;1.50;;;0.40;;
35576;SDS011;21680;52.400;16.920;2023-08-06T11:41:47;1.00;;;0.60;;
35576;SDS011;21680;52.400;16.920;2023-08-06T11:44:13;0.90;;;0.40;;
35576;SDS011;21680;52.400;16.920;2023-08-06T11:46:54;0.20;;;0.20;;
35576;SDS011;21680;52.400;16.920;2023-08-06T11:52:15;0.40;;;0.40;;
35576;SDS011;21680;52.400;16.920;2023-08-06T11:54:44;1.50;;;0.70;;
35576;SDS011;21680;52.400;16.920;2023-08-06T11:57:10;0.40;;;0.30;;
35576;SDS011;21680;52.400;16.920;2023-08-06T11:59:37;1.10;;;0.50;;
35576;SDS011;21680;52.400;16.920;2023-08-06T12:02:04;0.70;;;0.50;;
35576;SDS011;21680;52.400;16.920;2023-08-06T12:07:29;1.60;;;0.50;;
35576;SDS011;21680;52.400;16.920;2023-08-06T12:09:55;4.20;;;0.50;;
35576;SDS011;21680;52.400;16.920;2023-08-06T12:12:21;4.40;;;0.70;;
35576;SDS011;21680;52.400;16.920;2023-08-06T12:14:46;0.70;;;0.50;;
35576;SDS011;21680;52.400;16.920;2023-08-06T12:17:11;0.80;;;0.40;;
35576;SDS011;21680;52.400;16.920;2023-08-06T12:19:37;2.70;;;0.50;;
35576;SDS011;21680;52.400;16.920;2023-08-06T12:22:02;2.50;;;0.70;;
35576;SDS011;21680;52.400;16.920;2023-08-06T12:24:28;1.20;;;0.40;;
35576;SDS011;21680;52.400;16.920;2023-08-06T12:26:56;1.10;;;0.50;;
35576;SDS011;21680;52.400;16.920;2023-08-06T12:29:23;0.80;;;0.50;;
35576;SDS011;21680;52.400;16.920;2023-08-06T12:31:48;1.10;;;0.50;;
35576;SDS011;21680;52.400;16.920;2023-08-06T12:34:13;0.70;;;0.30;;
35576;SDS011;21680;52.400;16.920;2023-08-06T12:36:39;3.90;;;0.60;;
35576;SDS011;21680;52.400;16.920;2023-08-06T12:39:04;5.20;;;0.40;;
35576;SDS011;21680;52.400;16.920;2023-08-06T12:41:29;4.20;;;0.90;;
35576;SDS011;21680;52.400;16.920;2023-08-06T12:43:55;0.70;;;0.40;;
35576;SDS011;21680;52.400;16.920;2023-08-06T12:46:20;0.80;;;0.50;;
35576;SDS011;21680;52.400;16.920;2023-08-06T12:48:45;1.10;;;0.50;;
35576;SDS011;21680;52.400;16.920;2023-08-06T12:51:10;2.30;;;0.40;;
35576;SDS011;21680;52.400;16.920;2023-08-06T12:53:36;0.50;;;0.50;;
35576;SDS011;21680;52.400;16.920;2023-08-06T12:56:01;0.40;;;0.30;;
35576;SDS011;21680;52.400;16.920;2023-08-06T12:58:26;0.60;;;0.30;;
35576;SDS011;21680;52.400;16.920;2023-08-06T13:00:52;3.00;;;0.60;;
35576;SDS011;21680;52.400;16.920;2023-08-06T13:03:17;0.80;;;0.30;;
35576;SDS011;21680;52.400;16.920;2023-08-06T13:05:43;0.50;;;0.20;;
35576;SDS011;21680;52.400;16.920;2023-08-06T13:08:09;0.90;;;0.20;;
35576;SDS011;21680;52.400;16.920;2023-08-06T13:10:34;0.70;;;0.30;;
35576;SDS011;21680;52.400;16.920;2023-08-06T13:12:59;1.40;;;0.50;;
35576;SDS011;21680;52.400;16.920;2023-08-06T13:15:24;0.70;;;0.30;;
35576;SDS011;21680;52.400;16.920;2023-08-06T13:17:50;1.70;;;0.20;;
35576;SDS011;21680;52.400;16.920;2023-08-06T13:20:15;0.10;;;0.10;;
35576;SDS011;21680;52.400;16.920;2023-08-06T13:22:40;1.40;;;0.40;;
35576;SDS011;21680;52.400;16.920;2023-08-06T13:25:05;0.70;;;0.60;;
35576;SDS011;21680;52.400;16.920;2023-08-06T13:27:31;0.50;;;0.40;;
35576;SDS011;21680;52.400;16.920;2023-08-06T13:29:56;0.60;;;0.30;;
35576;SDS011;21680;52.400;16.920;2023-08-06T13:32:21;0.70;;;0.30;;
35576;SDS011;21680;52.400;16.920;2023-08-06T13:34:47;1.30;;;0.70;;
35576;SDS011;21680;52.400;16.920;2023-08-06T13:37:12;0.60;;;0.30;;
35576;SDS011;21680;52.400;16.920;2023-08-06T13:39:37;0.80;;;0.40;;
35576;SDS011;21680;52.400;16.920;2023-08-06T13:42:02;0.10;;;0.10;;
35576;SDS011;21680;52.400;16.920;2023-08-06T13:44:28;0.90;;;0.40;;
35576;SDS011;21680;52.400;16.920;2023-08-06T13:46:54;0.20;;;0.20;;
35576;SDS011;21680;52.400;16.920;2023-08-06T13:49:19;1.20;;;0.40;;
35576;SDS011;21680;52.400;16.920;2023-08-06T13:51:44;3.20;;;0.50;;
35576;SDS011;21680;52.400;16.920;2023-08-06T13:54:09;0.40;;;0.30;;
35576;SDS011;21680;52.400;16.920;2023-08-06T13:56:35;1.20;;;0.60;;
35576;SDS011;21680;52.400;16.920;2023-08-06T13:59:01;0.50;;;0.30;;
35576;SDS011;21680;52.400;16.920;2023-08-06T14:01:26;3.90;;;0.80;;
35576;SDS011;21680;52.400;16.920;2023-08-06T14:03:52;1.80;;;0.40;;
35576;SDS011;21680;52.400;16.920;2023-08-06T14:06:18;2.80;;;0.30;;
35576;SDS011;21680;52.400;16.920;2023-08-06T14:08:43;1.00;;;0.40;;
35576;SDS011;21680;52.400;16.920;2023-08-06T14:11:09;1.10;;;0.30;;
35576;SDS011;21680;52.400;16.920;2023-08-06T14:13:35;3.50;;;0.60;;
35576;SDS011;21680;52.400;16.920;2023-08-06T14:16:00;6.00;;;0.40;;
35576;SDS011;21680;52.400;16.920;2023-08-06T14:18:26;4.20;;;0.40;;
35576;SDS011;21680;52.400;16.920;2023-08-06T14:20:51;0.30;;;0.20;;
35576;SDS011;21680;52.400;16.920;2023-08-06T14:23:16;0.80;;;0.30;;
35576;SDS011;21680;52.400;16.920;2023-08-06T14:25:41;0.80;;;0.30;;
35576;SDS011;21680;52.400;16.920;2023-08-06T14:28:07;1.70;;;0.50;;
35576;SDS011;21680;52.400;16.920;2023-08-06T14:30:32;1.40;;;0.60;;
35576;SDS011;21680;52.400;16.920;2023-08-06T14:32:58;0.60;;;0.60;;
35576;SDS011;21680;52.400;16.920;2023-08-06T14:35:25;2.30;;;0.50;;
35576;SDS011;21680;52.400;16.920;2023-08-06T14:37:51;1.30;;;0.30;;
35576;SDS011;21680;52.400;16.920;2023-08-06T14:40:16;0.40;;;0.30;;
35576;SDS011;21680;52.400;16.920;2023-08-06T14:42:41;2.60;;;0.50;;